createdAt,value
2022-10-20T00:01:16.665Z,101473.69
2022-10-20T00:06:17.284Z,101416.97
2022-10-20T00:11:16.590Z,101484.91
2022-10-20T00:16:15.167Z,101471.50
2022-10-20T00:21:15.884Z,101425.25
2022-10-20T00:26:15.421Z,101494.28
2022-10-20T00:31:13.559Z,101487.00
2022-10-20T00:36:14.846Z,101461.03
2022-10-20T00:41:13.334Z,101391.91
2022-10-20T00:46:12.515Z,101507.31
2022-10-20T00:51:15.037Z,101432.13
2022-10-20T00:56:13.590Z,101467.69
2022-10-20T01:01:13.432Z,101426.06
2022-10-20T01:06:12.253Z,101438.97
2022-10-20T01:11:35.146Z,101452.91
2022-10-20T01:16:46.668Z,101491.34
2022-10-20T01:22:02.396Z,101437.91
2022-10-20T01:27:26.283Z,101512.19
2022-10-20T01:32:36.420Z,101512.97
2022-10-20T01:37:48.861Z,101477.66
2022-10-20T01:42:50.342Z,101499.31
2022-10-20T01:47:51.683Z,101467.72
2022-10-20T01:52:49.005Z,101509.72
2022-10-20T01:57:58.945Z,101416.19
2022-10-20T02:03:08.411Z,101524.63
2022-10-20T02:08:13.402Z,101526.34
2022-10-20T02:13:12.658Z,101512.69
2022-10-20T02:18:14.303Z,101550.56
2022-10-20T02:23:11.965Z,101528.22
2022-10-20T02:28:12.597Z,101504.22
2022-10-20T02:33:11.819Z,101546.41
2022-10-20T02:38:08.933Z,101573.50
2022-10-20T02:43:06.002Z,101510.66
2022-10-20T02:48:05.178Z,101546.22
2022-10-20T02:53:06.154Z,101593.72
2022-10-20T02:58:07.466Z,101547.03
2022-10-20T03:03:06.219Z,101588.31
2022-10-20T03:08:05.299Z,101526.78
2022-10-20T03:13:11.696Z,101627.31
2022-10-20T03:18:08.509Z,101620.66
2022-10-20T03:23:07.263Z,101599.91
2022-10-20T03:28:05.681Z,101610.34
2022-10-20T03:33:02.859Z,101639.56
2022-10-20T03:38:05.889Z,101582.38
2022-10-20T03:43:03.011Z,101595.47
2022-10-20T03:48:00.599Z,101638.50
2022-10-20T03:52:58.099Z,101578.59
2022-10-20T03:57:55.137Z,101632.25
2022-10-20T04:02:52.668Z,101535.72
2022-10-20T04:07:54.013Z,101666.00
2022-10-20T04:12:51.913Z,101591.34
2022-10-20T04:17:48.979Z,101637.09
2022-10-20T04:22:51.338Z,101609.34
2022-10-20T04:27:48.966Z,101627.59
2022-10-20T04:32:46.074Z,101653.88
2022-10-20T04:37:49.874Z,101637.84
2022-10-20T04:42:47.681Z,101649.72
2022-10-20T04:47:44.567Z,101678.09
2022-10-20T04:52:41.862Z,101633.56
2022-10-20T04:57:41.838Z,101692.19
2022-10-20T05:02:45.777Z,101667.53
2022-10-20T05:07:42.683Z,101743.50
2022-10-20T05:12:42.127Z,101767.97
2022-10-20T05:17:39.410Z,101773.44
2022-10-20T05:22:44.432Z,101715.97
2022-10-20T05:27:44.000Z,101802.41
2022-10-20T05:32:42.849Z,101775.34
2022-10-20T05:38:03.631Z,101678.03
2022-10-20T05:43:01.055Z,101726.28
2022-10-20T05:47:59.103Z,101793.91
2022-10-20T05:53:02.558Z,101815.00
2022-10-20T05:58:00.744Z,101877.91
2022-10-20T06:02:58.628Z,101888.16
2022-10-20T06:07:57.821Z,101895.97
2022-10-20T06:13:11.948Z,101880.19
2022-10-20T06:18:10.846Z,101781.16
2022-10-20T06:23:19.966Z,101891.88
2022-10-20T06:28:19.932Z,101921.78
2022-10-20T06:33:18.830Z,101922.25
2022-10-20T06:38:43.390Z,101887.34
2022-10-20T06:43:40.911Z,101937.06
2022-10-20T06:48:38.537Z,101907.22
2022-10-20T06:53:36.722Z,101937.53
2022-10-20T06:58:37.600Z,101938.13
2022-10-20T07:03:36.654Z,101819.59
2022-10-20T07:08:40.280Z,101939.97
2022-10-20T07:13:39.171Z,101925.47
2022-10-20T07:23:47.084Z,101929.47
2022-10-20T07:28:54.654Z,101901.66
2022-10-20T07:34:06.972Z,101850.75
2022-10-20T07:39:12.216Z,101944.31
2022-10-20T07:44:09.998Z,101956.19
2022-10-20T07:54:26.702Z,101935.53
2022-10-20T07:59:24.490Z,101932.38
2022-10-20T08:04:21.789Z,101936.44
2022-10-20T08:09:18.880Z,101920.03
2022-10-20T08:14:40.892Z,101904.78
2022-10-20T08:24:49.806Z,101923.28
2022-10-20T08:29:55.082Z,101926.53
2022-10-20T08:34:58.048Z,101908.06
2022-10-20T08:40:00.288Z,101962.63
2022-10-20T08:45:01.221Z,101953.75
2022-10-20T08:50:28.322Z,101847.78
2022-10-20T08:55:39.475Z,101897.56
2022-10-20T09:00:39.002Z,101962.94
2022-10-20T09:05:44.894Z,101912.78
2022-10-20T09:10:52.468Z,101917.72
2022-10-20T09:15:57.132Z,101959.13
2022-10-20T09:20:58.849Z,101988.34
2022-10-20T09:26:24.709Z,101992.19
2022-10-20T09:31:35.956Z,101893.31
2022-10-20T09:36:35.306Z,101891.91
2022-10-20T09:41:35.436Z,101943.66
2022-10-20T09:46:53.145Z,101986.41
2022-10-20T09:51:53.854Z,101966.94
2022-10-20T09:56:52.383Z,101972.34
2022-10-20T10:02:31.950Z,101913.19
2022-10-20T10:07:33.210Z,101972.41
2022-10-20T10:12:32.689Z,101911.06
2022-10-20T10:17:31.886Z,101901.88
2022-10-20T10:22:30.959Z,101953.03
2022-10-20T10:27:49.169Z,101921.31
2022-10-20T10:32:48.030Z,101961.72
2022-10-20T10:37:53.253Z,101957.31
2022-10-20T10:43:29.091Z,101918.19
2022-10-20T10:48:48.003Z,101959.44
2022-10-20T10:53:59.499Z,101867.34
2022-10-20T10:59:01.702Z,101916.34
2022-10-20T11:04:26.583Z,101931.38
2022-10-20T11:09:31.253Z,101890.69
2022-10-20T11:14:45.694Z,101894.91
2022-10-20T11:20:21.860Z,101878.09
2022-10-20T11:25:32.293Z,101858.72
2022-10-20T11:30:33.810Z,101903.28
2022-10-20T11:35:39.851Z,101849.84
2022-10-20T11:40:44.114Z,101889.84
2022-10-20T11:45:51.487Z,101894.53
2022-10-20T11:56:40.187Z,101884.13
2022-10-20T12:02:02.753Z,101834.09
2022-10-20T12:07:41.478Z,101771.53
2022-10-20T12:12:53.073Z,101817.47
2022-10-20T12:17:54.134Z,101875.88
2022-10-20T12:23:23.476Z,101764.59
2022-10-20T12:29:16.022Z,101803.03
2022-10-20T12:34:23.682Z,101862.41
2022-10-20T12:39:21.877Z,101882.00
2022-10-20T12:44:37.753Z,101872.81
2022-10-20T12:49:47.892Z,101872.63
2022-10-20T12:55:11.712Z,101784.09
2022-10-20T13:00:50.445Z,101738.13
2022-10-20T13:05:56.091Z,101856.34
2022-10-20T13:11:35.342Z,101880.03
2022-10-20T13:16:36.407Z,101851.31
2022-10-20T13:27:19.170Z,101894.44
2022-10-20T13:32:25.657Z,101808.72
2022-10-20T13:37:41.263Z,101851.03
2022-10-20T13:42:54.204Z,101830.44
2022-10-20T13:48:07.802Z,101797.50
2022-10-20T13:53:13.650Z,101878.00
2022-10-20T13:58:33.084Z,101868.19
2022-10-20T14:04:01.609Z,101772.84
2022-10-20T14:09:08.983Z,101874.72
2022-10-20T14:14:34.091Z,101865.50
2022-10-20T14:19:35.153Z,101838.41
2022-10-20T14:24:36.507Z,101842.19
2022-10-20T14:29:38.517Z,101811.94
2022-10-20T14:35:05.330Z,101906.47
2022-10-20T14:40:29.739Z,101908.75
2022-10-20T14:50:36.728Z,101835.75
2022-10-20T14:55:43.401Z,101905.88
2022-10-20T15:00:43.686Z,101867.91
2022-10-20T15:05:56.665Z,101801.31
2022-10-20T15:16:43.765Z,101910.88
2022-10-20T15:22:16.088Z,101909.69
2022-10-20T15:27:19.505Z,101912.25
2022-10-20T15:32:20.409Z,101813.63
2022-10-20T15:37:23.633Z,101783.31
2022-10-20T15:42:26.181Z,101788.66
2022-10-20T15:47:25.342Z,101928.06
2022-10-20T15:53:10.237Z,101902.88
2022-10-20T15:58:15.663Z,101902.28
2022-10-20T16:03:26.070Z,101919.94
2022-10-20T16:08:24.456Z,101932.88
2022-10-20T16:13:30.314Z,101969.66
2022-10-20T16:18:28.419Z,101961.63
2022-10-20T16:23:36.862Z,101933.94
2022-10-20T16:29:23.833Z,101981.03
2022-10-20T16:34:37.812Z,101916.59
2022-10-20T16:39:40.855Z,101998.50
2022-10-20T16:44:42.275Z,101992.41
2022-10-20T16:49:45.558Z,101894.69
2022-10-20T16:54:48.977Z,101975.44
2022-10-20T16:59:50.135Z,102010.81
2022-10-20T17:04:50.553Z,101938.38
2022-10-20T17:09:59.263Z,101916.44
2022-10-20T17:15:13.206Z,101910.47
2022-10-20T17:20:25.163Z,101911.66
2022-10-20T17:25:29.325Z,101924.94
2022-10-20T17:30:49.769Z,102044.88
2022-10-20T17:36:03.575Z,101930.41
2022-10-20T17:41:06.735Z,102000.84
2022-10-20T17:46:11.455Z,102016.44
2022-10-20T17:51:14.251Z,101932.63
2022-10-20T17:56:18.866Z,102038.03
2022-10-20T18:01:20.405Z,102012.22
2022-10-20T18:06:19.357Z,102051.19
2022-10-20T18:11:22.067Z,102053.25
2022-10-20T18:16:24.216Z,102033.69
2022-10-20T18:21:21.715Z,101948.59
2022-10-20T18:26:27.814Z,102004.25
2022-10-20T18:31:31.949Z,102054.09
2022-10-20T18:36:30.251Z,102053.09
2022-10-20T18:41:43.089Z,102061.03
2022-10-20T18:46:51.229Z,102013.34
2022-10-20T18:51:53.163Z,102084.25
2022-10-20T18:56:53.028Z,102052.66
2022-10-20T19:01:50.826Z,102062.72
2022-10-20T19:06:58.335Z,102103.28
2022-10-20T19:12:00.481Z,102118.41
2022-10-20T19:16:59.135Z,102044.66
2022-10-20T19:21:56.902Z,102085.97
2022-10-20T19:27:25.588Z,102063.09
2022-10-20T19:32:20.749Z,102113.19
2022-10-20T19:37:26.417Z,102023.31
2022-10-20T19:42:24.141Z,102156.97
2022-10-20T19:47:22.265Z,102124.44
2022-10-20T19:52:25.569Z,102046.44
2022-10-20T19:57:37.642Z,102143.97
2022-10-20T20:02:37.897Z,102162.47
2022-10-20T20:07:36.090Z,102181.38
2022-10-20T20:12:36.271Z,102128.09
2022-10-20T20:17:51.386Z,102211.59
2022-10-20T20:22:54.597Z,102159.72
2022-10-20T20:27:59.114Z,102195.06
2022-10-20T20:32:59.356Z,102232.06
2022-10-20T20:38:06.068Z,102229.47
2022-10-20T20:43:08.222Z,102249.28
2022-10-20T20:48:06.726Z,102171.81
2022-10-20T20:53:08.620Z,102145.25
2022-10-20T20:58:09.007Z,102250.63
2022-10-20T21:03:19.888Z,102239.13
2022-10-20T21:08:20.906Z,102159.28
2022-10-20T21:13:22.439Z,102250.81
2022-10-20T21:18:24.754Z,102255.63
2022-10-20T21:23:31.081Z,102239.00
2022-10-20T21:28:39.714Z,102146.69
2022-10-20T21:33:39.170Z,102144.56
2022-10-20T21:38:40.558Z,102267.13
2022-10-20T21:43:45.611Z,102209.31
2022-10-20T21:48:43.815Z,102226.75
2022-10-20T21:53:41.970Z,102170.72
2022-10-20T21:58:40.949Z,102305.19
2022-10-20T22:03:39.181Z,102286.22
2022-10-20T22:08:37.886Z,102275.94
2022-10-20T22:13:35.561Z,102278.56
2022-10-20T22:18:36.370Z,102309.38
2022-10-20T22:23:33.859Z,102290.16
2022-10-20T22:28:32.105Z,102282.41
2022-10-20T22:33:36.717Z,102306.75
2022-10-20T22:38:35.606Z,102276.94
2022-10-20T22:43:32.576Z,102320.19
2022-10-20T22:48:30.150Z,102279.78
2022-10-20T22:53:30.165Z,102280.34
2022-10-20T22:58:28.687Z,102324.16
2022-10-20T23:03:26.524Z,102296.28
2022-10-20T23:08:36.438Z,102256.44
2022-10-20T23:13:34.366Z,102325.34
2022-10-20T23:18:31.249Z,102265.63
2022-10-20T23:23:28.511Z,102271.06
2022-10-20T23:28:25.484Z,102277.34
2022-10-20T23:33:23.078Z,102208.69
2022-10-20T23:38:20.342Z,102282.41
2022-10-20T23:43:18.643Z,102289.53
2022-10-20T23:48:15.547Z,102333.84
2022-10-20T23:53:13.409Z,102309.19
2022-10-20T23:58:12.659Z,102346.03
